Frankfurt-Egelsbach Airport

METAR EDDF TAF EDDF
6 °C
°C
-
°C
19m
Wiek
19:39:11
LT
18:39
UTC
0 ft

1.000

2.000

3.000

4.000

5.000

SCT 3.600
BKN 4.800
FEW 0
VFR
<?= Yii::t('app', 'Wind direction') ?> <?= Yii::t('app', 'of'); ?>
260°
08:02
Wschód słońca
71%
Wilgotność
Siła wiatru
Zamknięte/Śnieg
Zasięg wzroku na RWY
Stan RWY
Widzialność pionowa
Min. widoczność
CAVOK
Trend
Korekta
Raport specjalny
1022 hPa
QNH
METAR EDDF 301820Z AUTO 26013KT 9999 VCSH SCT036 BKN048 FEW///TCU 06/01 Q1022 NOSIG
W pobliżu prysznice
1 kt
1 kt
19:00
VFR
12 kt
20:00
VFR
12 kt
21:00
VFR
12 kt
22:00
VFR
12 kt
23:00
VFR
12 kt
00:00
VFR
12 kt
01:00
VFR
12 kt
10 km+
Widoczność
4.800 ft
Sufit
13 kt
Wiatr
metar-taf.com/EDFE

Metar-Taf.com

Dekoder wizualny

My i strony trzecie śledzimy Twoje zachowanie internetowe na naszej stronie za pomocą plików cookie. Jeśli kontynuujesz, zakładamy, że zgadzasz się z naszymi polityka plików cookie.